createdAt,value
2019-06-08T00:02:25.243Z,99.90
2019-06-08T00:04:54.097Z,99.90
2019-06-08T00:07:23.182Z,99.90
2019-06-08T00:09:51.767Z,99.90
2019-06-08T00:12:21.320Z,99.90
2019-06-08T00:14:49.469Z,99.90
2019-06-08T00:17:30.418Z,99.90
2019-06-08T00:19:47.173Z,99.90
2019-06-08T00:22:16.017Z,99.90
2019-06-08T00:24:44.868Z,99.90
2019-06-08T00:27:14.039Z,99.90
2019-06-08T00:29:42.541Z,99.90
2019-06-08T00:32:12.207Z,99.90
2019-06-08T00:34:41.771Z,99.90
2019-06-08T00:37:10.604Z,99.90
2019-06-08T00:39:39.449Z,99.90
2019-06-08T00:42:08.293Z,99.90
2019-06-08T00:44:37.167Z,99.90
2019-06-08T00:47:05.983Z,99.90
2019-06-08T00:49:34.850Z,99.90
2019-06-08T00:52:03.694Z,99.90
2019-06-08T00:54:32.475Z,99.90
2019-06-08T00:57:01.310Z,99.90
2019-06-08T00:59:30.473Z,99.90
2019-06-08T01:01:59.009Z,99.90
2019-06-08T01:04:29.139Z,99.90
2019-06-08T01:06:56.678Z,99.90
2019-06-08T01:09:26.366Z,99.90
2019-06-08T01:11:55.095Z,99.90
2019-06-08T01:14:24.848Z,99.90
2019-06-08T01:16:52.767Z,99.90
2019-06-08T01:19:21.613Z,99.90
2019-06-08T01:21:50.445Z,99.90
2019-06-08T01:24:19.682Z,99.90
2019-06-08T01:26:48.118Z,99.90
2019-06-08T01:29:16.963Z,99.90
2019-06-08T01:31:45.803Z,99.90
2019-06-08T01:34:14.644Z,99.90
2019-06-08T01:36:43.497Z,99.90
2019-06-08T01:39:12.325Z,99.90
2019-06-08T01:41:41.180Z,99.90
2019-06-08T01:44:10.029Z,99.90
2019-06-08T01:46:39.600Z,99.90
2019-06-08T01:49:08.437Z,99.90
2019-06-08T01:51:37.291Z,99.90
2019-06-08T01:54:06.137Z,99.90
2019-06-08T01:56:34.979Z,99.90
2019-06-08T01:59:03.813Z,99.90
2019-06-08T02:01:34.018Z,99.90
2019-06-08T02:04:01.515Z,99.90
2019-06-08T02:06:30.450Z,99.90
2019-06-08T02:08:59.212Z,99.90
2019-06-08T02:11:28.769Z,99.90
2019-06-08T02:13:56.875Z,99.90
2019-06-08T02:16:25.783Z,99.90
2019-06-08T02:18:54.558Z,99.90
2019-06-08T02:21:23.381Z,99.90
2019-06-08T02:23:52.973Z,99.90
2019-06-08T02:26:22.549Z,99.90
2019-06-08T02:28:51.407Z,99.90
2019-06-08T02:31:20.256Z,99.90
2019-06-08T02:33:49.098Z,99.90
2019-06-08T02:36:17.933Z,99.90
2019-06-08T02:38:46.790Z,99.90
2019-06-08T02:41:15.606Z,99.90
2019-06-08T02:43:44.439Z,99.90
2019-06-08T02:46:13.273Z,99.90
2019-06-08T02:49:02.702Z,99.90
2019-06-08T02:51:10.941Z,99.90
2019-06-08T02:53:41.422Z,99.90
2019-06-08T02:56:08.612Z,99.90
2019-06-08T02:58:40.314Z,99.90
2019-06-08T03:01:06.264Z,99.90
2019-06-08T03:03:35.752Z,99.90
2019-06-08T03:06:03.935Z,99.90
2019-06-08T03:08:36.294Z,99.90
2019-06-08T03:11:04.510Z,99.90
2019-06-08T03:13:33.959Z,99.90
2019-06-08T03:16:02.179Z,99.90
2019-06-08T03:18:31.559Z,99.90
2019-06-08T03:20:59.862Z,99.90
2019-06-08T03:23:28.698Z,99.90
2019-06-08T03:25:58.441Z,99.90
2019-06-08T03:28:27.114Z,99.90
2019-06-08T03:30:55.944Z,99.90
2019-06-08T03:33:24.786Z,99.90
2019-06-08T03:35:57.931Z,99.90
2019-06-08T03:38:23.202Z,99.90
2019-06-08T03:40:52.055Z,99.90
2019-06-08T03:43:20.898Z,99.90
2019-06-08T03:45:49.749Z,99.90
2019-06-08T03:48:19.317Z,99.90
2019-06-08T03:50:48.204Z,99.90
2019-06-08T03:53:16.995Z,99.90
2019-06-08T03:55:47.281Z,99.90
2019-06-08T03:58:14.708Z,99.90
2019-06-08T04:00:44.420Z,99.90
2019-06-08T04:03:12.528Z,99.90
2019-06-08T04:05:42.700Z,99.90
2019-06-08T04:08:10.801Z,99.90
2019-06-08T04:10:39.865Z,99.90
2019-06-08T04:13:11.337Z,99.90
2019-06-08T04:15:37.974Z,99.90
2019-06-08T04:18:06.160Z,99.90
2019-06-08T04:20:34.979Z,99.90
2019-06-08T04:23:03.801Z,99.90
2019-06-08T04:25:33.380Z,99.90
2019-06-08T04:28:02.219Z,99.90
2019-06-08T04:30:31.784Z,99.90
2019-06-08T04:33:00.613Z,99.90
2019-06-08T04:35:29.448Z,99.90
2019-06-08T04:37:58.323Z,99.90
2019-06-08T04:40:27.140Z,99.90
2019-06-08T04:42:55.984Z,99.90
2019-06-08T04:45:24.821Z,99.90
2019-06-08T04:47:53.668Z,99.90
2019-06-08T04:50:24.221Z,99.90
2019-06-08T04:52:51.346Z,99.90
2019-06-08T04:55:20.186Z,99.90
2019-06-08T04:57:50.802Z,99.90
2019-06-08T05:00:17.856Z,99.90
2019-06-08T05:02:48.875Z,99.90
2019-06-08T05:05:15.572Z,99.90
2019-06-08T05:07:45.936Z,99.90
2019-06-08T05:10:13.248Z,99.90
2019-06-08T05:12:43.387Z,99.90
2019-06-08T05:15:10.949Z,99.90
2019-06-08T05:17:41.293Z,99.90
2019-06-08T05:20:09.365Z,99.90
2019-06-08T05:22:39.413Z,99.90
2019-06-08T05:25:07.048Z,99.90
2019-06-08T05:27:35.911Z,99.90
2019-06-08T05:30:08.758Z,99.90
2019-06-08T05:32:33.601Z,99.90
2019-06-08T05:35:02.435Z,99.90
2019-06-08T05:37:31.299Z,99.90
2019-06-08T05:40:00.135Z,99.90
2019-06-08T05:42:28.980Z,99.90
2019-06-08T05:44:57.813Z,99.90
2019-06-08T05:47:27.382Z,99.90
2019-06-08T05:49:56.233Z,99.90
2019-06-08T05:52:25.081Z,99.90
2019-06-08T05:54:53.934Z,99.90
2019-06-08T05:57:22.765Z,99.90
2019-06-08T05:59:52.368Z,99.90
2019-06-08T06:02:21.956Z,99.90
2019-06-08T06:07:20.293Z,99.90
2019-06-08T06:09:49.170Z,99.90
2019-06-08T06:12:18.010Z,99.90
2019-06-08T06:14:46.902Z,99.90
2019-06-08T06:17:15.684Z,99.90
2019-06-08T06:19:45.166Z,99.90
2019-06-08T06:22:13.393Z,99.90
2019-06-08T06:24:43.686Z,99.90
2019-06-08T06:27:11.112Z,99.90
2019-06-08T06:29:41.320Z,99.90
2019-06-08T06:32:08.798Z,99.90
2019-06-08T06:34:37.639Z,99.90
2019-06-08T06:37:07.258Z,99.90
2019-06-08T06:39:36.848Z,99.90
2019-06-08T06:42:05.668Z,99.90
2019-06-08T06:44:34.513Z,99.90
2019-06-08T06:47:03.354Z,99.90
2019-06-08T06:49:32.203Z,99.90
2019-06-08T06:52:01.787Z,99.90
2019-06-08T06:54:30.621Z,99.90
2019-06-08T06:56:59.482Z,99.90
2019-06-08T06:59:28.325Z,99.90
2019-06-08T07:01:57.761Z,99.90
2019-06-08T07:04:25.998Z,99.90
2019-06-08T07:06:54.840Z,99.90
2019-06-08T07:09:23.700Z,99.90
2019-06-08T07:11:53.000Z,99.90
2019-06-08T07:14:21.407Z,99.90
2019-06-08T07:16:50.253Z,99.90
2019-06-08T07:19:19.088Z,99.90
2019-06-08T07:24:18.124Z,99.90
2019-06-08T07:26:48.283Z,99.90
2019-06-08T07:29:16.524Z,99.90
2019-06-08T07:31:46.912Z,99.90
2019-06-08T07:34:14.209Z,99.90
2019-06-08T07:36:43.084Z,99.90
2019-06-08T07:39:12.678Z,99.90
2019-06-08T07:41:42.310Z,99.90
2019-06-08T07:44:11.130Z,99.90
2019-06-08T07:46:39.973Z,99.90
2019-06-08T07:49:09.579Z,99.90
2019-06-08T07:51:39.156Z,99.90
2019-06-08T07:54:07.986Z,99.90
2019-06-08T07:56:36.842Z,99.90
2019-06-08T07:59:05.697Z,99.90
2019-06-08T08:01:36.532Z,99.90
2019-06-08T08:04:04.140Z,99.90
2019-06-08T08:06:33.731Z,99.90
2019-06-08T08:09:02.615Z,99.90
2019-06-08T08:11:31.458Z,99.90
2019-06-08T08:14:00.328Z,99.90
2019-06-08T08:16:29.938Z,99.90
2019-06-08T08:18:59.724Z,99.90
2019-06-08T08:21:29.503Z,99.90
2019-06-08T08:23:59.407Z,99.90
2019-06-08T08:26:27.284Z,99.90
2019-06-08T08:28:55.220Z,99.90
2019-06-08T08:31:23.038Z,99.90
2019-06-08T08:33:52.990Z,99.90
2019-06-08T08:36:21.045Z,99.90
2019-06-08T08:38:50.669Z,99.90
2019-06-08T08:41:18.435Z,99.90
2019-06-08T08:43:48.505Z,99.90
2019-06-08T08:46:17.325Z,99.90
2019-06-08T08:48:45.689Z,99.90
2019-06-08T08:51:14.536Z,99.90
2019-06-08T08:53:43.380Z,99.90
2019-06-08T08:56:12.969Z,99.90
2019-06-08T08:58:41.806Z,99.90
2019-06-08T09:01:10.643Z,99.90
2019-06-08T09:03:39.684Z,99.90
2019-06-08T09:06:08.790Z,99.90
2019-06-08T09:08:37.720Z,99.90
2019-06-08T09:11:07.992Z,99.90
2019-06-08T09:13:37.558Z,99.90
2019-06-08T09:16:04.623Z,99.90
2019-06-08T09:18:33.307Z,99.90
2019-06-08T09:21:02.903Z,99.90
2019-06-08T09:23:31.031Z,99.90
2019-06-08T09:26:07.618Z,99.90
2019-06-08T09:28:29.499Z,99.90
2019-06-08T09:31:00.353Z,99.90
2019-06-08T09:33:28.786Z,99.90
2019-06-08T09:35:58.190Z,99.70
2019-06-08T09:38:28.471Z,99.80
2019-06-08T09:40:54.824Z,99.10
2019-06-08T09:43:23.340Z,99.30
2019-06-08T09:45:54.278Z,99.90
2019-06-08T09:50:51.463Z,99.20
2019-06-08T09:53:28.498Z,99.20
2019-06-08T09:55:49.845Z,98.80
2019-06-08T09:58:19.449Z,96.90
2019-06-08T10:00:48.886Z,97.20
2019-06-08T10:03:18.670Z,97.40
2019-06-08T10:05:48.256Z,97.50
2019-06-08T10:08:14.887Z,97.60
2019-06-08T10:10:43.703Z,97.10
2019-06-08T10:13:12.571Z,97.80
2019-06-08T10:15:42.157Z,97.00
2019-06-08T10:18:11.005Z,97.50
2019-06-08T10:20:39.836Z,96.50
2019-06-08T10:25:38.549Z,96.20
2019-06-08T10:28:13.201Z,95.80
2019-06-08T10:30:38.302Z,94.20
2019-06-08T10:33:05.763Z,94.80
2019-06-08T10:35:33.581Z,95.30
2019-06-08T10:38:06.481Z,95.00
2019-06-08T10:40:31.229Z,95.30
2019-06-08T10:43:01.475Z,95.10
2019-06-08T10:45:29.632Z,95.40
2019-06-08T10:48:00.832Z,95.00
2019-06-08T10:50:28.767Z,94.40
2019-06-08T10:52:59.408Z,93.90
2019-06-08T10:55:25.044Z,94.00
2019-06-08T10:57:54.642Z,93.50
2019-06-08T11:00:28.397Z,93.90
2019-06-08T11:02:59.006Z,94.00
2019-06-08T11:05:27.943Z,93.40
2019-06-08T11:07:54.529Z,92.70
2019-06-08T11:12:52.810Z,91.90
2019-06-08T11:15:21.641Z,91.40
2019-06-08T11:17:50.474Z,91.50
2019-06-08T11:20:19.343Z,90.60
2019-06-08T11:22:50.081Z,90.30
2019-06-08T11:25:19.735Z,89.90
2019-06-08T11:27:47.510Z,90.20
2019-06-08T11:30:23.690Z,90.10
2019-06-08T11:32:44.324Z,89.20
2019-06-08T11:35:13.170Z,87.40
2019-06-08T11:37:42.002Z,89.00
2019-06-08T11:40:12.613Z,87.00
2019-06-08T11:42:39.685Z,88.10
2019-06-08T11:45:11.156Z,86.10
2019-06-08T11:47:39.106Z,87.70
2019-06-08T11:50:11.683Z,87.90
2019-06-08T11:52:38.250Z,89.80
2019-06-08T11:55:07.480Z,89.30
2019-06-08T11:57:37.324Z,89.40
2019-06-08T12:00:10.765Z,87.20
2019-06-08T12:02:34.366Z,86.20
2019-06-08T12:05:03.753Z,86.10
2019-06-08T12:07:32.064Z,84.70
2019-06-08T12:12:30.356Z,85.70
2019-06-08T12:14:59.252Z,83.80
2019-06-08T12:17:28.100Z,83.40
2019-06-08T12:19:57.720Z,84.70
2019-06-08T12:22:25.769Z,83.70
2019-06-08T12:24:54.651Z,82.50
2019-06-08T12:27:33.542Z,81.70
2019-06-08T12:29:53.078Z,81.90
2019-06-08T12:32:21.909Z,83.80
2019-06-08T12:34:50.758Z,83.90
2019-06-08T12:37:22.164Z,82.50
2019-06-08T12:39:48.635Z,82.90
2019-06-08T12:42:20.806Z,83.20
2019-06-08T12:44:47.575Z,81.70
2019-06-08T12:47:18.053Z,81.20
2019-06-08T12:49:43.923Z,76.60
2019-06-08T12:52:14.526Z,78.20
2019-06-08T12:54:56.539Z,74.40
2019-06-08T12:57:14.085Z,74.20
2019-06-08T12:59:40.795Z,73.20
2019-06-08T13:02:14.831Z,72.10
2019-06-08T13:04:38.562Z,72.00
2019-06-08T13:07:08.832Z,70.40
2019-06-08T13:09:38.202Z,70.00
2019-06-08T13:12:05.011Z,68.70
2019-06-08T13:14:33.850Z,68.30
2019-06-08T13:17:02.688Z,66.60
2019-06-08T13:19:31.533Z,67.20
2019-06-08T13:22:01.152Z,66.20
2019-06-08T13:24:30.026Z,68.70
2019-06-08T13:26:58.872Z,65.50
2019-06-08T13:29:28.127Z,67.20
2019-06-08T13:31:58.636Z,66.50
2019-06-08T13:34:28.319Z,67.20
2019-06-08T13:36:54.978Z,66.10
2019-06-08T13:39:24.567Z,67.00
2019-06-08T13:41:53.425Z,65.00
2019-06-08T13:44:22.265Z,65.20
2019-06-08T13:46:51.130Z,64.90
2019-06-08T13:49:25.504Z,64.00
2019-06-08T13:51:50.781Z,63.90
2019-06-08T13:54:19.584Z,65.30
2019-06-08T13:56:47.919Z,62.50
2019-06-08T13:59:19.201Z,62.80
2019-06-08T14:01:44.188Z,61.60
2019-06-08T14:04:14.970Z,62.70
2019-06-08T14:06:42.662Z,61.60
2019-06-08T14:09:11.464Z,62.70
2019-06-08T14:11:41.055Z,61.10
2019-06-08T14:14:09.893Z,60.70
2019-06-08T14:16:39.071Z,61.20
2019-06-08T14:19:08.561Z,60.10
2019-06-08T14:21:41.115Z,59.00
2019-06-08T14:24:07.616Z,60.30
2019-06-08T14:26:34.096Z,59.30
2019-06-08T14:29:02.931Z,58.40
2019-06-08T14:31:32.253Z,58.10
2019-06-08T14:34:01.401Z,58.40
2019-06-08T14:36:31.011Z,57.20
2019-06-08T14:39:02.478Z,59.00
2019-06-08T14:41:31.540Z,55.40
2019-06-08T14:43:58.663Z,56.40
2019-06-08T14:46:28.622Z,56.40
2019-06-08T14:48:55.368Z,56.90
2019-06-08T14:51:27.635Z,57.10
2019-06-08T14:53:53.799Z,56.60
2019-06-08T14:56:22.844Z,56.40
2019-06-08T14:58:52.222Z,56.50
2019-06-08T15:01:22.702Z,56.10
2019-06-08T15:03:50.724Z,56.30
2019-06-08T15:06:19.598Z,56.10
2019-06-08T15:08:50.360Z,55.90
2019-06-08T15:11:18.365Z,55.00
2019-06-08T15:13:48.738Z,55.50
2019-06-08T15:16:18.021Z,56.40
2019-06-08T15:18:45.301Z,54.00
2019-06-08T15:21:33.493Z,54.00
2019-06-08T15:24:03.073Z,53.50
2019-06-08T15:26:39.798Z,54.40
2019-06-08T15:29:00.750Z,53.70
2019-06-08T15:31:31.530Z,53.10
2019-06-08T15:34:01.419Z,53.00
2019-06-08T15:36:29.759Z,52.70
2019-06-08T15:38:56.913Z,53.50
2019-06-08T15:41:26.557Z,52.60
2019-06-08T15:43:54.617Z,53.20
2019-06-08T15:46:24.105Z,53.10
2019-06-08T15:48:52.306Z,52.30
2019-06-08T15:51:22.093Z,52.70
2019-06-08T15:53:49.995Z,53.60
2019-06-08T15:56:18.842Z,53.00
2019-06-08T15:58:48.663Z,53.10
2019-06-08T16:01:16.508Z,52.70
2019-06-08T16:03:45.451Z,52.60
2019-06-08T16:06:14.201Z,53.40
2019-06-08T16:08:43.811Z,52.20
2019-06-08T16:11:13.413Z,51.80
2019-06-08T16:13:42.263Z,52.10
2019-06-08T16:16:11.103Z,51.90
2019-06-08T16:18:39.964Z,51.70
2019-06-08T16:21:08.819Z,52.10
2019-06-08T16:23:37.658Z,52.50
2019-06-08T16:26:07.249Z,51.90
2019-06-08T16:28:36.339Z,51.60
2019-06-08T16:31:05.658Z,51.40
2019-06-08T16:33:33.769Z,51.80
2019-06-08T16:36:02.643Z,52.30
2019-06-08T16:38:32.355Z,51.80
2019-06-08T16:41:00.339Z,52.20
2019-06-08T16:43:29.181Z,52.90
2019-06-08T16:45:57.999Z,52.00
2019-06-08T16:48:27.950Z,51.50
2019-06-08T16:50:56.457Z,52.30
2019-06-08T16:53:25.310Z,53.20
2019-06-08T16:55:54.155Z,53.50
2019-06-08T16:58:23.003Z,52.70
2019-06-08T17:00:51.845Z,53.10
2019-06-08T17:03:20.697Z,53.50
2019-06-08T17:05:49.565Z,52.70
2019-06-08T17:08:18.383Z,53.30
2019-06-08T17:10:47.227Z,53.60
2019-06-08T17:13:16.069Z,53.60
2019-06-08T17:15:45.675Z,53.50
2019-06-08T17:18:15.263Z,53.50
2019-06-08T17:20:44.149Z,54.40
2019-06-08T17:23:12.955Z,54.40
2019-06-08T17:25:41.804Z,55.30
2019-06-08T17:28:10.666Z,55.20
2019-06-08T17:30:39.599Z,55.40
2019-06-08T17:35:38.069Z,55.90
2019-06-08T17:38:06.832Z,56.40
2019-06-08T17:40:36.418Z,57.10
2019-06-08T17:43:05.275Z,58.20
2019-06-08T17:45:34.262Z,58.00
2019-06-08T17:48:02.964Z,57.60
2019-06-08T17:50:32.685Z,58.00
2019-06-08T17:53:00.664Z,58.50
2019-06-08T17:55:30.243Z,59.10
2019-06-08T17:57:59.091Z,59.80
2019-06-08T18:00:27.949Z,59.90
2019-06-08T18:02:57.753Z,60.00
2019-06-08T18:05:28.158Z,59.30
2019-06-08T18:10:27.292Z,59.70
2019-06-08T18:12:54.265Z,59.50
2019-06-08T18:15:23.122Z,60.00
2019-06-08T18:17:51.965Z,60.30
2019-06-08T18:20:20.826Z,60.80
2019-06-08T18:22:50.471Z,62.20
2019-06-08T18:25:20.037Z,64.40
2019-06-08T18:28:04.967Z,64.60
2019-06-08T18:30:19.131Z,65.50
2019-06-08T18:32:48.558Z,66.10
2019-06-08T18:35:15.472Z,66.60
2019-06-08T18:37:45.517Z,66.90
2019-06-08T18:40:13.191Z,67.60
2019-06-08T18:42:43.149Z,68.10
2019-06-08T18:45:10.888Z,69.20
2019-06-08T18:47:40.830Z,69.70
2019-06-08T18:50:09.323Z,70.50
2019-06-08T18:52:40.534Z,70.50
2019-06-08T18:55:08.336Z,70.70
2019-06-08T18:57:38.086Z,71.30
2019-06-08T19:00:10.976Z,71.70
2019-06-08T19:02:33.669Z,72.60
2019-06-08T19:05:02.515Z,73.70
2019-06-08T19:07:31.359Z,74.50
2019-06-08T19:10:00.207Z,74.60
2019-06-08T19:12:29.042Z,75.30
2019-06-08T19:14:58.582Z,76.10
2019-06-08T19:17:28.496Z,76.10
2019-06-08T19:19:57.926Z,76.90
2019-06-08T19:22:25.174Z,78.50
2019-06-08T19:24:54.039Z,79.10
2019-06-08T19:27:22.883Z,79.70
2019-06-08T19:29:51.994Z,80.10
2019-06-08T19:32:20.566Z,80.10
2019-06-08T19:37:18.843Z,81.70
2019-06-08T19:39:48.234Z,81.70
2019-06-08T19:42:17.554Z,82.60
2019-06-08T19:44:55.795Z,83.80
2019-06-08T19:47:14.254Z,84.00
2019-06-08T19:49:43.103Z,83.50
2019-06-08T19:52:11.962Z,83.90
2019-06-08T19:54:43.695Z,84.10
2019-06-08T19:57:10.436Z,84.40
2019-06-08T19:59:39.714Z,86.80
2019-06-08T20:02:08.784Z,86.70
2019-06-08T20:04:38.622Z,86.10
2019-06-08T20:07:08.462Z,86.70
2019-06-08T20:09:34.719Z,88.40
2019-06-08T20:12:03.562Z,88.80
2019-06-08T20:14:32.400Z,90.10
2019-06-08T20:17:01.248Z,90.60
2019-06-08T20:19:30.108Z,91.70
2019-06-08T20:21:58.965Z,92.50
2019-06-08T20:24:28.006Z,93.20
2019-06-08T20:26:56.642Z,94.00
2019-06-08T20:29:27.950Z,94.70
2019-06-08T20:31:54.337Z,95.40
2019-06-08T20:34:23.189Z,95.70
2019-06-08T20:36:52.766Z,96.40
2019-06-08T20:39:20.889Z,96.40
2019-06-08T20:41:51.542Z,96.50
2019-06-08T20:44:18.582Z,96.80
2019-06-08T20:46:49.458Z,98.70
2019-06-08T20:49:17.254Z,99.90
2019-06-08T20:51:45.152Z,99.90
2019-06-08T20:54:14.003Z,99.90
2019-06-08T20:56:43.017Z,99.90
2019-06-08T20:59:26.312Z,99.90
2019-06-08T21:01:42.055Z,99.90
2019-06-08T21:04:10.911Z,99.90
2019-06-08T21:06:39.753Z,99.90
2019-06-08T21:09:08.595Z,99.90
2019-06-08T21:11:38.036Z,99.90
2019-06-08T21:14:06.300Z,99.90
2019-06-08T21:16:38.127Z,99.90
2019-06-08T21:19:06.906Z,99.90
2019-06-08T21:21:33.599Z,99.90
2019-06-08T21:24:03.193Z,99.90
2019-06-08T21:26:32.049Z,99.90
2019-06-08T21:29:00.946Z,99.90
2019-06-08T21:31:29.754Z,99.90
2019-06-08T21:34:00.755Z,99.90
2019-06-08T21:36:27.474Z,99.90
2019-06-08T21:39:00.542Z,99.90
2019-06-08T21:41:27.744Z,99.90
2019-06-08T21:43:59.597Z,99.90
2019-06-08T21:48:54.566Z,99.90
2019-06-08T21:51:25.529Z,99.90
2019-06-08T21:53:52.546Z,99.90
2019-06-08T21:56:20.347Z,99.90
2019-06-08T21:58:50.323Z,99.90
2019-06-08T22:01:18.813Z,99.90
2019-06-08T22:03:47.655Z,99.90
2019-06-08T22:06:17.709Z,99.90
2019-06-08T22:08:45.367Z,99.90
2019-06-08T22:11:14.964Z,99.90
2019-06-08T22:13:43.812Z,99.90
2019-06-08T22:16:12.666Z,99.90
2019-06-08T22:18:41.497Z,99.90
2019-06-08T22:21:10.340Z,99.90
2019-06-08T22:23:39.939Z,99.90
2019-06-08T22:26:09.531Z,99.90
2019-06-08T22:28:38.377Z,99.90
2019-06-08T22:31:07.958Z,99.90
2019-06-08T22:33:37.847Z,99.90
2019-06-08T22:36:04.918Z,99.90
2019-06-08T22:38:33.769Z,99.90
2019-06-08T22:41:03.544Z,99.90
2019-06-08T22:43:31.457Z,99.90
2019-06-08T22:48:30.466Z,99.90
2019-06-08T22:51:01.448Z,99.90
2019-06-08T22:53:28.157Z,99.90
2019-06-08T22:55:59.651Z,99.90
2019-06-08T22:58:27.670Z,99.90
2019-06-08T23:00:56.123Z,99.90
2019-06-08T23:03:23.509Z,99.90
2019-06-08T23:05:54.803Z,99.90
2019-06-08T23:08:21.927Z,99.90
2019-06-08T23:10:50.779Z,99.90
2019-06-08T23:13:19.636Z,99.90
2019-06-08T23:15:48.477Z,99.90
2019-06-08T23:18:18.108Z,99.90
2019-06-08T23:20:47.898Z,99.90
2019-06-08T23:23:15.006Z,99.90
2019-06-08T23:25:43.858Z,99.90
2019-06-08T23:28:12.696Z,99.90
2019-06-08T23:33:11.816Z,99.90
2019-06-08T23:36:07.700Z,99.90
2019-06-08T23:38:09.455Z,99.90
2019-06-08T23:40:37.944Z,99.90
2019-06-08T23:43:06.382Z,99.90
2019-06-08T23:45:35.211Z,99.90
2019-06-08T23:48:04.665Z,99.90
2019-06-08T23:50:32.900Z,99.90
2019-06-08T23:53:02.379Z,99.90
2019-06-08T23:55:30.570Z,99.90
2019-06-08T23:58:00.408Z,99.90
